createdAt,value
2022-09-30T00:00:01.530Z,63.55
2022-09-30T00:02:36.829Z,64.25
2022-09-30T00:05:05.558Z,64.10
2022-09-30T00:07:32.948Z,63.94
2022-09-30T00:10:02.047Z,64.62
2022-09-30T00:12:29.483Z,64.30
2022-09-30T00:14:57.354Z,64.41
2022-09-30T00:17:24.937Z,64.50
2022-09-30T00:19:54.362Z,64.31
2022-09-30T00:22:22.894Z,64.07
2022-09-30T00:24:51.248Z,63.81
2022-09-30T00:27:20.246Z,63.53
2022-09-30T00:29:48.359Z,63.78
2022-09-30T00:32:16.558Z,63.62
2022-09-30T00:34:44.492Z,63.58
2022-09-30T00:37:16.111Z,63.41
2022-09-30T00:39:43.585Z,63.32
2022-09-30T00:42:22.116Z,63.44
2022-09-30T00:44:55.551Z,63.58
2022-09-30T00:47:32.293Z,63.43
2022-09-30T00:50:12.671Z,63.66
2022-09-30T00:52:42.701Z,63.58
2022-09-30T00:55:21.729Z,63.18
2022-09-30T00:57:49.404Z,63.21
2022-09-30T01:00:16.824Z,63.37
2022-09-30T01:02:47.474Z,63.32
2022-09-30T01:05:16.030Z,63.40
2022-09-30T01:07:43.761Z,63.73
2022-09-30T01:10:11.040Z,63.36
2022-09-30T01:12:39.724Z,63.14
2022-09-30T01:15:07.915Z,62.85
2022-09-30T01:17:54.790Z,62.91
2022-09-30T01:20:46.334Z,62.85
2022-09-30T01:23:41.465Z,62.98
2022-09-30T01:26:25.723Z,63.43
2022-09-30T01:29:24.287Z,63.79
2022-09-30T01:32:14.411Z,63.89
2022-09-30T01:35:26.271Z,64.36
2022-09-30T01:38:02.205Z,63.70
2022-09-30T01:40:54.281Z,63.64
2022-09-30T01:43:42.904Z,63.47
2022-09-30T01:46:31.271Z,63.18
2022-09-30T01:49:29.830Z,63.03
2022-09-30T01:52:11.239Z,63.14
2022-09-30T01:54:45.674Z,63.28
2022-09-30T01:57:31.057Z,63.23
2022-09-30T02:00:05.989Z,63.30
2022-09-30T02:02:59.223Z,63.57
2022-09-30T02:06:03.162Z,63.54
2022-09-30T02:09:06.177Z,64.10
2022-09-30T02:11:38.651Z,63.89
2022-09-30T02:14:28.688Z,64.31
2022-09-30T02:17:21.448Z,64.55
2022-09-30T02:19:59.545Z,64.72
2022-09-30T02:22:44.728Z,64.58
2022-09-30T02:25:36.230Z,65.07
2022-09-30T02:28:08.753Z,65.03
2022-09-30T02:30:43.684Z,65.12
2022-09-30T02:33:17.139Z,64.56
2022-09-30T02:35:50.432Z,64.41
2022-09-30T02:38:29.939Z,64.34
2022-09-30T02:41:02.623Z,64.47
2022-09-30T02:43:33.447Z,64.37
2022-09-30T02:46:51.828Z,64.25
2022-09-30T02:49:40.281Z,64.33
2022-09-30T02:52:52.088Z,64.28
2022-09-30T02:55:41.046Z,64.36
2022-09-30T02:58:28.403Z,64.23
2022-09-30T03:01:03.508Z,64.41
2022-09-30T03:03:43.762Z,64.09
2022-09-30T03:06:11.916Z,64.44
2022-09-30T03:08:39.564Z,64.53
2022-09-30T03:11:08.103Z,64.95
2022-09-30T03:14:08.068Z,65.32
2022-09-30T03:16:51.738Z,64.95
2022-09-30T03:19:37.593Z,65.11
2022-09-30T03:22:25.182Z,64.91
2022-09-30T03:24:56.072Z,64.68
2022-09-30T03:27:50.353Z,63.88
2022-09-30T03:30:24.330Z,63.57
2022-09-30T03:33:08.606Z,63.31
2022-09-30T03:35:57.279Z,62.40
2022-09-30T03:38:46.042Z,62.16
2022-09-30T03:41:26.100Z,62.21
2022-09-30T03:44:02.542Z,62.47
2022-09-30T03:46:54.368Z,62.87
2022-09-30T03:49:32.800Z,62.48
2022-09-30T03:52:05.273Z,61.97
2022-09-30T03:54:33.703Z,61.64
2022-09-30T03:57:04.364Z,61.46
2022-09-30T03:59:33.453Z,61.45
2022-09-30T04:02:01.002Z,61.32
2022-09-30T04:04:28.443Z,60.92
2022-09-30T04:06:56.345Z,61.19
2022-09-30T04:09:25.015Z,61.04
2022-09-30T04:11:54.091Z,60.66
2022-09-30T04:14:21.762Z,60.51
2022-09-30T04:16:53.208Z,60.42
2022-09-30T04:19:22.113Z,59.98
2022-09-30T04:21:54.377Z,59.74
2022-09-30T04:24:23.468Z,59.52
2022-09-30T04:26:52.418Z,59.22
2022-09-30T04:29:20.036Z,59.42
2022-09-30T04:31:47.782Z,59.11
2022-09-30T04:34:16.573Z,59.01
2022-09-30T04:36:44.721Z,59.08
2022-09-30T04:39:12.222Z,59.28
2022-09-30T04:41:41.115Z,59.18
2022-09-30T04:44:08.891Z,59.61
2022-09-30T04:46:37.301Z,58.84
2022-09-30T04:49:09.027Z,59.15
2022-09-30T04:51:38.365Z,58.99
2022-09-30T04:54:06.228Z,59.21
2022-09-30T04:56:34.195Z,59.07
2022-09-30T04:59:01.355Z,59.05
2022-09-30T05:01:28.575Z,58.89
2022-09-30T05:03:55.969Z,58.75
2022-09-30T05:06:23.487Z,58.62
2022-09-30T05:08:50.997Z,58.37
2022-09-30T05:11:20.192Z,58.49
2022-09-30T05:13:49.085Z,59.13
2022-09-30T05:16:17.487Z,58.82
2022-09-30T05:18:46.644Z,58.97
2022-09-30T05:21:15.960Z,59.16
2022-09-30T05:23:44.097Z,59.55
2022-09-30T05:26:12.993Z,59.71
2022-09-30T05:28:42.344Z,59.60
2022-09-30T05:31:12.523Z,59.72
2022-09-30T05:33:42.119Z,59.69
2022-09-30T05:36:14.014Z,59.21
2022-09-30T05:38:43.568Z,59.35
2022-09-30T05:41:13.546Z,58.97
2022-09-30T05:43:48.080Z,58.95
2022-09-30T05:46:21.766Z,58.76
2022-09-30T05:48:49.624Z,58.44
2022-09-30T05:51:16.888Z,58.05
2022-09-30T05:53:45.119Z,58.12
2022-09-30T05:56:18.680Z,58.32
2022-09-30T05:58:47.542Z,58.35
2022-09-30T06:01:16.305Z,58.25
2022-09-30T06:03:45.547Z,57.91
2022-09-30T06:06:13.964Z,57.81
2022-09-30T06:08:44.089Z,58.06
2022-09-30T06:11:15.802Z,57.79
2022-09-30T06:13:44.764Z,57.67
2022-09-30T06:16:15.695Z,57.34
2022-09-30T06:18:43.342Z,57.18
2022-09-30T06:21:13.700Z,57.15
2022-09-30T06:23:41.580Z,57.36
2022-09-30T06:26:11.948Z,56.90
2022-09-30T06:28:39.959Z,57.31
2022-09-30T06:31:08.986Z,56.39
2022-09-30T06:33:36.338Z,56.61
2022-09-30T06:36:07.425Z,56.47
2022-09-30T06:38:37.505Z,56.22
2022-09-30T06:41:05.985Z,56.35
2022-09-30T06:43:49.439Z,56.56
2022-09-30T06:46:30.989Z,56.15
2022-09-30T06:49:12.747Z,55.93
2022-09-30T06:51:44.494Z,55.54
2022-09-30T06:54:12.510Z,55.57
2022-09-30T06:56:40.040Z,54.96
2022-09-30T06:59:07.364Z,54.75
2022-09-30T07:01:34.669Z,54.85
2022-09-30T07:04:08.352Z,54.78
2022-09-30T07:06:35.911Z,54.45
2022-09-30T07:09:03.950Z,54.46
2022-09-30T07:11:35.008Z,54.19
2022-09-30T07:14:02.446Z,54.00
2022-09-30T07:16:30.141Z,54.06
2022-09-30T07:19:00.135Z,54.02
2022-09-30T07:21:27.867Z,54.31
2022-09-30T07:23:57.412Z,54.00
2022-09-30T07:26:25.813Z,53.82
2022-09-30T07:28:54.366Z,54.71
2022-09-30T07:31:33.683Z,54.60
2022-09-30T07:34:12.424Z,54.22
2022-09-30T07:36:41.637Z,54.58
2022-09-30T07:39:12.291Z,54.57
2022-09-30T07:41:44.630Z,54.48
2022-09-30T07:44:26.313Z,54.14
2022-09-30T07:46:57.883Z,54.14
2022-09-30T07:49:29.798Z,54.46
2022-09-30T07:51:59.890Z,56.59
2022-09-30T07:54:41.810Z,56.32
2022-09-30T07:57:18.754Z,56.26
2022-09-30T07:59:47.378Z,53.89
2022-09-30T08:02:17.988Z,54.87
2022-09-30T08:04:46.858Z,53.39
2022-09-30T08:07:20.048Z,53.02
2022-09-30T08:09:51.460Z,52.56
2022-09-30T08:12:18.818Z,52.97
2022-09-30T08:14:46.320Z,51.99
2022-09-30T08:17:14.177Z,53.42
2022-09-30T08:19:44.863Z,52.10
2022-09-30T08:22:14.314Z,51.18
2022-09-30T08:24:41.881Z,50.69
2022-09-30T08:27:09.615Z,50.92
2022-09-30T08:29:55.127Z,50.94
2022-09-30T08:32:24.263Z,51.00
2022-09-30T08:34:51.729Z,51.50
2022-09-30T08:37:21.390Z,51.42
2022-09-30T08:39:48.714Z,50.77
2022-09-30T08:42:39.391Z,50.88
2022-09-30T08:45:40.642Z,50.73
2022-09-30T08:48:23.247Z,50.74
2022-09-30T08:51:14.954Z,51.39
2022-09-30T08:53:46.606Z,51.62
2022-09-30T08:56:24.919Z,49.73
2022-09-30T08:58:59.778Z,49.92
2022-09-30T09:01:41.263Z,49.89
2022-09-30T09:04:09.443Z,50.06
2022-09-30T09:06:53.533Z,49.66
2022-09-30T09:09:39.391Z,49.37
2022-09-30T09:12:18.009Z,49.47
2022-09-30T09:15:09.555Z,49.13
2022-09-30T09:18:23.774Z,48.79
2022-09-30T09:21:00.731Z,49.45
2022-09-30T09:23:33.401Z,49.25
2022-09-30T09:26:05.453Z,49.36
2022-09-30T09:29:17.732Z,48.73
2022-09-30T09:31:45.576Z,49.27
2022-09-30T09:34:14.250Z,48.64
2022-09-30T09:37:00.871Z,48.83
2022-09-30T09:40:03.559Z,48.87
2022-09-30T09:42:34.875Z,48.24
2022-09-30T09:45:27.335Z,47.90
2022-09-30T09:47:58.320Z,47.37
2022-09-30T09:50:54.895Z,47.19
2022-09-30T09:53:28.703Z,47.42
2022-09-30T09:56:00.371Z,46.55
2022-09-30T09:58:29.086Z,45.91
2022-09-30T10:01:33.096Z,45.35
2022-09-30T10:04:16.464Z,46.99
2022-09-30T10:06:53.127Z,45.38
2022-09-30T10:09:44.828Z,44.67
2022-09-30T10:12:12.392Z,45.31
2022-09-30T10:15:00.450Z,45.35
2022-09-30T10:17:37.581Z,43.20
2022-09-30T10:20:29.427Z,43.00
2022-09-30T10:23:18.791Z,43.15
2022-09-30T10:26:15.799Z,41.71
2022-09-30T10:28:52.790Z,41.63
2022-09-30T10:31:36.276Z,41.75
2022-09-30T10:34:11.737Z,40.56
2022-09-30T10:36:42.044Z,40.65
2022-09-30T10:39:24.295Z,40.21
2022-09-30T10:42:09.625Z,41.46
2022-09-30T10:44:44.555Z,38.77
2022-09-30T10:47:18.986Z,40.15
2022-09-30T10:49:58.441Z,37.61
2022-09-30T10:52:39.816Z,36.94
2022-09-30T10:55:33.930Z,37.98
2022-09-30T10:58:30.828Z,38.85
2022-09-30T11:01:18.438Z,36.79
2022-09-30T11:04:03.837Z,35.61
2022-09-30T11:06:40.408Z,36.17
2022-09-30T11:09:36.271Z,38.20
2022-09-30T11:12:21.414Z,40.50
2022-09-30T11:14:57.880Z,40.86
2022-09-30T11:18:00.573Z,41.03
2022-09-30T11:20:41.195Z,41.55
2022-09-30T11:23:21.229Z,43.45
2022-09-30T11:26:07.239Z,45.36
2022-09-30T11:29:00.495Z,44.27
2022-09-30T11:31:37.110Z,45.18
2022-09-30T11:34:29.993Z,44.39
2022-09-30T11:37:06.660Z,45.18
2022-09-30T11:39:42.783Z,45.16
2022-09-30T11:42:36.789Z,45.16
2022-09-30T11:46:08.497Z,45.24
2022-09-30T11:52:19.078Z,45.72
2022-09-30T11:54:55.139Z,45.51
2022-09-30T11:57:35.485Z,45.93
2022-09-30T12:00:05.708Z,45.38
2022-09-30T12:02:48.743Z,45.58
2022-09-30T12:05:48.716Z,45.45
2022-09-30T12:08:29.853Z,44.85
2022-09-30T12:11:11.173Z,44.65
2022-09-30T12:13:47.544Z,45.21
2022-09-30T12:16:27.645Z,45.86
2022-09-30T12:19:13.906Z,45.81
2022-09-30T12:21:51.281Z,45.75
2022-09-30T12:24:40.481Z,46.37
2022-09-30T12:27:19.434Z,46.18
2022-09-30T12:30:16.422Z,46.13
2022-09-30T12:33:25.519Z,45.37
2022-09-30T12:36:31.384Z,44.82
2022-09-30T12:39:18.825Z,45.70
2022-09-30T12:41:48.985Z,45.51
2022-09-30T12:44:53.408Z,45.66
2022-09-30T12:47:46.319Z,44.87
2022-09-30T12:50:18.891Z,44.34
2022-09-30T12:52:46.557Z,44.76
2022-09-30T12:55:37.276Z,46.46
2022-09-30T12:58:05.928Z,46.95
2022-09-30T13:00:35.156Z,46.89
2022-09-30T13:03:09.479Z,45.54
2022-09-30T13:05:38.615Z,45.47
2022-09-30T13:08:06.529Z,44.18
2022-09-30T13:10:39.918Z,44.15
2022-09-30T13:13:13.548Z,44.95
2022-09-30T13:15:45.955Z,44.66
2022-09-30T13:18:27.113Z,44.34
2022-09-30T13:20:59.571Z,44.39
2022-09-30T13:23:53.883Z,44.65
2022-09-30T13:26:25.350Z,44.85
2022-09-30T13:29:02.189Z,44.84
2022-09-30T13:31:54.360Z,44.18
2022-09-30T13:34:24.511Z,43.95
2022-09-30T13:36:51.795Z,44.12
2022-09-30T13:39:34.504Z,44.00
2022-09-30T13:42:19.698Z,44.49
2022-09-30T13:45:16.747Z,44.75
2022-09-30T13:47:50.045Z,44.00
2022-09-30T13:50:24.416Z,44.28
2022-09-30T13:53:35.636Z,43.27
2022-09-30T13:56:15.663Z,42.95
2022-09-30T13:59:14.797Z,43.59
2022-09-30T14:02:25.009Z,43.92
2022-09-30T14:05:21.683Z,42.80
2022-09-30T14:08:27.894Z,42.95
2022-09-30T14:11:35.479Z,43.44
2022-09-30T14:14:32.752Z,43.23
2022-09-30T14:17:22.090Z,42.93
2022-09-30T14:20:19.259Z,43.92
2022-09-30T14:22:47.026Z,45.43
2022-09-30T14:25:22.657Z,45.15
2022-09-30T14:28:19.543Z,44.17
2022-09-30T14:31:08.222Z,44.70
2022-09-30T14:33:38.042Z,44.96
2022-09-30T14:36:14.858Z,45.61
2022-09-30T14:39:00.077Z,45.13
2022-09-30T14:41:30.149Z,44.26
2022-09-30T14:44:11.313Z,43.76
2022-09-30T14:46:49.300Z,43.71
2022-09-30T14:49:24.677Z,43.70
2022-09-30T14:51:52.512Z,44.48
2022-09-30T14:54:31.991Z,44.67
2022-09-30T14:57:15.111Z,45.43
2022-09-30T14:59:44.094Z,45.44
2022-09-30T15:02:23.629Z,47.09
2022-09-30T15:04:59.151Z,47.14
2022-09-30T15:07:28.992Z,47.91
2022-09-30T15:10:03.103Z,48.88
2022-09-30T15:12:39.646Z,49.32
2022-09-30T15:15:42.061Z,49.74
2022-09-30T15:18:28.775Z,49.84
2022-09-30T15:21:17.137Z,49.72
2022-09-30T15:23:54.307Z,50.21
2022-09-30T15:26:38.969Z,50.33
2022-09-30T15:29:07.425Z,50.54
2022-09-30T15:31:35.380Z,50.56
2022-09-30T15:34:18.098Z,51.08
2022-09-30T15:36:51.520Z,50.89
2022-09-30T15:39:51.398Z,51.21
2022-09-30T15:42:37.911Z,51.14
2022-09-30T15:45:34.680Z,51.52
2022-09-30T15:48:06.056Z,52.36
2022-09-30T15:50:58.790Z,52.38
2022-09-30T15:53:36.925Z,52.39
2022-09-30T15:56:39.171Z,52.62
2022-09-30T15:59:16.801Z,53.09
2022-09-30T16:01:50.379Z,53.12
2022-09-30T16:04:18.135Z,53.38
2022-09-30T16:06:54.015Z,53.65
2022-09-30T16:09:32.521Z,53.46
2022-09-30T16:12:06.623Z,53.38
2022-09-30T16:14:43.004Z,53.26
2022-09-30T16:17:38.437Z,53.44
2022-09-30T16:20:15.616Z,53.41
2022-09-30T16:22:43.510Z,53.26
2022-09-30T16:25:30.629Z,53.52
2022-09-30T16:28:01.524Z,53.46
2022-09-30T16:30:32.586Z,54.11
2022-09-30T16:33:06.727Z,53.60
2022-09-30T16:35:37.637Z,53.94
2022-09-30T16:38:08.065Z,53.71
2022-09-30T16:40:39.578Z,53.87
2022-09-30T16:43:12.978Z,54.02
2022-09-30T16:45:41.405Z,53.98
2022-09-30T16:48:17.304Z,54.08
2022-09-30T16:51:03.001Z,53.26
2022-09-30T16:53:31.307Z,53.53
2022-09-30T16:56:01.847Z,53.58
2022-09-30T16:58:32.021Z,53.63
2022-09-30T17:01:00.810Z,52.94
2022-09-30T17:03:28.569Z,52.79
2022-09-30T17:06:08.302Z,52.99
2022-09-30T17:08:51.120Z,53.14
2022-09-30T17:11:53.764Z,52.87
2022-09-30T17:14:21.804Z,52.89
2022-09-30T17:16:49.618Z,52.77
2022-09-30T17:19:17.098Z,53.05
2022-09-30T17:21:44.556Z,52.97
2022-09-30T17:24:12.528Z,53.25
2022-09-30T17:26:40.515Z,54.10
2022-09-30T17:29:30.950Z,54.01
2022-09-30T17:31:56.627Z,55.39
2022-09-30T17:34:26.937Z,56.13
2022-09-30T17:36:55.155Z,55.98
2022-09-30T17:39:24.317Z,56.23
2022-09-30T17:42:11.288Z,56.01
2022-09-30T17:44:39.417Z,55.94
2022-09-30T17:47:06.924Z,55.47
2022-09-30T17:49:36.705Z,55.22
2022-09-30T17:52:04.899Z,55.87
2022-09-30T17:54:34.761Z,55.72
2022-09-30T17:57:09.114Z,55.41
2022-09-30T17:59:37.439Z,55.66
2022-09-30T18:02:05.860Z,55.61
2022-09-30T18:04:35.842Z,55.03
2022-09-30T18:07:03.498Z,55.43
2022-09-30T18:09:31.554Z,55.34
2022-09-30T18:12:00.544Z,55.59
2022-09-30T18:14:35.889Z,56.36
2022-09-30T18:17:05.512Z,56.11
2022-09-30T18:19:36.178Z,56.27
2022-09-30T18:22:04.457Z,56.11
2022-09-30T18:24:50.909Z,56.03
2022-09-30T18:27:21.761Z,56.05
2022-09-30T18:29:49.927Z,56.16
2022-09-30T18:32:20.671Z,55.56
2022-09-30T18:34:48.643Z,55.44
2022-09-30T18:37:16.111Z,55.36
2022-09-30T18:39:43.788Z,55.40
2022-09-30T18:42:12.122Z,55.28
2022-09-30T18:44:40.524Z,55.53
2022-09-30T18:47:09.470Z,55.55
2022-09-30T18:49:37.403Z,55.68
2022-09-30T18:52:05.105Z,55.84
2022-09-30T18:54:34.856Z,55.74
2022-09-30T18:57:14.142Z,55.92
2022-09-30T18:59:41.620Z,55.96
2022-09-30T19:02:23.202Z,55.88
2022-09-30T19:04:50.839Z,56.13
2022-09-30T19:07:28.780Z,56.08
2022-09-30T19:09:57.612Z,56.33
2022-09-30T19:12:27.774Z,56.57
2022-09-30T19:14:55.966Z,56.83
2022-09-30T19:17:24.025Z,56.98
2022-09-30T19:19:58.801Z,56.70
2022-09-30T19:22:30.868Z,56.96
2022-09-30T19:24:58.303Z,57.25
2022-09-30T19:27:43.664Z,57.22
2022-09-30T19:30:17.927Z,57.50
2022-09-30T19:32:45.843Z,57.56
2022-09-30T19:35:20.153Z,57.58
2022-09-30T19:38:02.409Z,57.95
2022-09-30T19:43:13.457Z,59.24
2022-09-30T19:46:07.198Z,61.24
2022-09-30T19:48:42.691Z,61.59
2022-09-30T19:51:13.981Z,61.64
2022-09-30T19:54:01.187Z,61.05
2022-09-30T19:56:42.024Z,61.03
2022-09-30T19:59:20.926Z,61.08
2022-09-30T20:01:52.937Z,60.35
2022-09-30T20:04:32.700Z,60.00
2022-09-30T20:07:04.364Z,60.20
2022-09-30T20:09:35.266Z,60.72
2022-09-30T20:12:24.556Z,61.94
2022-09-30T20:15:15.717Z,61.79
2022-09-30T20:17:44.535Z,62.30
2022-09-30T20:20:41.036Z,62.32
2022-09-30T20:23:20.165Z,62.57
2022-09-30T20:26:01.556Z,62.95
2022-09-30T20:28:32.902Z,62.57
2022-09-30T20:31:07.439Z,61.43
2022-09-30T20:33:38.760Z,61.30
2022-09-30T20:36:33.386Z,61.37
2022-09-30T20:39:13.209Z,61.66
2022-09-30T20:41:41.534Z,61.29
2022-09-30T20:44:17.223Z,61.60
2022-09-30T20:47:08.725Z,61.21
2022-09-30T20:49:49.577Z,60.96
2022-09-30T20:52:18.653Z,59.53
2022-09-30T20:54:47.980Z,58.96
2022-09-30T20:57:15.225Z,58.14
2022-09-30T20:59:42.912Z,58.50
2022-09-30T21:02:14.467Z,58.90
2022-09-30T21:04:43.045Z,58.78
2022-09-30T21:07:10.575Z,59.21
2022-09-30T21:09:38.224Z,59.97
2022-09-30T21:12:14.539Z,60.79
2022-09-30T21:14:44.916Z,60.63
2022-09-30T21:17:13.677Z,61.26
2022-09-30T21:19:45.111Z,60.93
2022-09-30T21:22:18.883Z,61.11
2022-09-30T21:24:48.168Z,60.78
2022-09-30T21:27:16.130Z,60.86
2022-09-30T21:29:48.512Z,60.81
2022-09-30T21:32:17.278Z,61.16
2022-09-30T21:34:44.630Z,60.83
2022-09-30T21:37:12.054Z,60.55
2022-09-30T21:39:39.300Z,60.68
2022-09-30T21:42:07.073Z,61.50
2022-09-30T21:44:36.183Z,61.83
2022-09-30T21:47:04.094Z,61.69
2022-09-30T21:49:31.529Z,61.31
2022-09-30T21:51:59.016Z,62.24
2022-09-30T21:54:27.981Z,62.13
2022-09-30T21:56:55.387Z,62.73
2022-09-30T21:59:25.661Z,62.64
2022-09-30T22:01:53.022Z,62.47
2022-09-30T22:04:20.862Z,62.98
2022-09-30T22:06:48.473Z,62.44
2022-09-30T22:09:15.761Z,62.41
2022-09-30T22:11:44.141Z,62.29
2022-09-30T22:14:11.488Z,62.26
2022-09-30T22:16:39.399Z,62.36
2022-09-30T22:19:08.368Z,62.55
2022-09-30T22:21:37.919Z,62.44
2022-09-30T22:24:09.667Z,62.54
2022-09-30T22:26:41.705Z,62.71
2022-09-30T22:29:13.107Z,62.57
2022-09-30T22:31:43.693Z,62.61
2022-09-30T22:34:32.505Z,62.73
2022-09-30T22:37:19.297Z,62.81
2022-09-30T22:39:46.969Z,62.63
2022-09-30T22:42:14.976Z,62.85
2022-09-30T22:44:42.744Z,62.80
2022-09-30T22:47:11.023Z,62.45
2022-09-30T22:49:39.056Z,62.48
2022-09-30T22:52:06.953Z,62.64
2022-09-30T22:54:36.786Z,62.09
2022-09-30T22:57:08.188Z,62.34
2022-09-30T22:59:37.010Z,62.34
2022-09-30T23:02:05.686Z,61.81
2022-09-30T23:04:34.141Z,62.20
2022-09-30T23:07:03.062Z,62.40
2022-09-30T23:09:31.498Z,62.46
2022-09-30T23:11:59.615Z,62.23
2022-09-30T23:14:27.092Z,62.22
2022-09-30T23:16:54.623Z,62.47
2022-09-30T23:19:22.171Z,62.34
2022-09-30T23:21:49.744Z,62.20
2022-09-30T23:24:17.553Z,62.35
2022-09-30T23:26:45.247Z,62.22
2022-09-30T23:29:14.762Z,62.55
2022-09-30T23:31:43.106Z,62.64
2022-09-30T23:34:10.809Z,62.89
2022-09-30T23:36:38.552Z,63.09
2022-09-30T23:39:21.704Z,63.27
2022-09-30T23:41:50.722Z,63.30
2022-09-30T23:44:19.909Z,63.46
2022-09-30T23:47:07.319Z,63.67
2022-09-30T23:49:38.749Z,63.82
2022-09-30T23:52:12.700Z,64.67
2022-09-30T23:54:46.495Z,64.43
2022-09-30T23:57:14.145Z,64.99
2022-09-30T23:59:41.708Z,64.64
